createdAt,value
2022-10-28T00:01:21.868Z,68.94
2022-10-28T00:03:51.869Z,68.76
2022-10-28T00:06:24.128Z,68.54
2022-10-28T00:08:51.391Z,68.36
2022-10-28T00:11:24.660Z,68.33
2022-10-28T00:13:56.985Z,68.47
2022-10-28T00:16:29.646Z,68.75
2022-10-28T00:18:59.427Z,68.05
2022-10-28T00:21:29.721Z,68.68
2022-10-28T00:23:57.413Z,68.73
2022-10-28T00:26:26.851Z,68.80
2022-10-28T00:28:57.968Z,68.65
2022-10-28T00:31:26.900Z,68.96
2022-10-28T00:33:54.660Z,68.83
2022-10-28T00:36:25.471Z,68.90
2022-10-28T00:38:55.414Z,68.91
2022-10-28T00:41:29.015Z,68.45
2022-10-28T00:44:34.439Z,68.93
2022-10-28T00:47:01.603Z,68.66
2022-10-28T00:49:32.574Z,68.66
2022-10-28T00:52:08.723Z,68.86
2022-10-28T00:54:38.099Z,68.68
2022-10-28T00:57:10.614Z,68.75
2022-10-28T00:59:41.804Z,68.72
2022-10-28T01:02:09.073Z,68.33
2022-10-28T01:04:36.282Z,68.66
2022-10-28T01:07:03.535Z,68.13
2022-10-28T01:09:32.409Z,68.23
2022-10-28T01:12:35.565Z,68.26
2022-10-28T01:15:25.657Z,68.23
2022-10-28T01:18:12.744Z,68.19
2022-10-28T01:20:41.723Z,67.94
2022-10-28T01:23:31.744Z,68.09
2022-10-28T01:26:07.615Z,68.42
2022-10-28T01:28:46.539Z,68.27
2022-10-28T01:31:38.249Z,68.16
2022-10-28T01:34:28.752Z,68.13
2022-10-28T01:37:17.373Z,68.13
2022-10-28T01:40:02.931Z,68.35
2022-10-28T01:43:16.633Z,67.99
2022-10-28T01:45:59.441Z,68.13
2022-10-28T01:48:47.735Z,67.92
2022-10-28T01:51:26.891Z,67.75
2022-10-28T01:53:57.198Z,67.98
2022-10-28T01:56:39.248Z,67.82
2022-10-28T01:59:11.669Z,67.84
2022-10-28T02:01:38.834Z,67.37
2022-10-28T02:04:06.133Z,67.56
2022-10-28T02:06:34.949Z,68.12
2022-10-28T02:09:24.692Z,67.48
2022-10-28T02:12:17.313Z,67.81
2022-10-28T02:15:21.718Z,67.82
2022-10-28T02:18:00.642Z,68.00
2022-10-28T02:20:33.895Z,67.53
2022-10-28T02:23:25.498Z,67.39
2022-10-28T02:25:59.361Z,67.37
2022-10-28T02:28:53.556Z,67.00
2022-10-28T02:31:37.848Z,67.13
2022-10-28T02:34:09.651Z,67.26
2022-10-28T02:36:41.862Z,67.22
2022-10-28T02:39:08.950Z,67.25
2022-10-28T02:41:51.099Z,67.16
2022-10-28T02:44:23.915Z,67.50
2022-10-28T02:46:52.713Z,66.75
2022-10-28T02:49:20.155Z,67.18
2022-10-28T02:51:53.927Z,67.64
2022-10-28T02:54:34.735Z,67.56
2022-10-28T02:57:08.305Z,67.93
2022-10-28T02:59:35.350Z,67.97
2022-10-28T03:02:02.464Z,68.45
2022-10-28T03:04:29.675Z,68.81
2022-10-28T03:06:56.773Z,68.55
2022-10-28T03:09:23.866Z,68.90
2022-10-28T03:11:50.964Z,68.86
2022-10-28T03:14:17.996Z,68.45
2022-10-28T03:16:45.055Z,68.85
2022-10-28T03:19:12.165Z,68.88
2022-10-28T03:21:39.190Z,68.94
2022-10-28T03:24:06.560Z,68.42
2022-10-28T03:26:33.625Z,68.48
2022-10-28T03:29:00.736Z,69.08
2022-10-28T03:31:27.770Z,68.72
2022-10-28T03:33:54.920Z,69.16
2022-10-28T03:36:21.948Z,69.17
2022-10-28T03:38:49.006Z,69.15
2022-10-28T03:41:16.179Z,68.98
2022-10-28T03:43:43.464Z,69.28
2022-10-28T03:46:10.473Z,69.29
2022-10-28T03:48:37.498Z,68.92
2022-10-28T03:51:04.689Z,68.97
2022-10-28T03:53:31.763Z,69.46
2022-10-28T03:56:02.702Z,69.66
2022-10-28T03:58:29.868Z,69.40
2022-10-28T04:00:57.265Z,69.32
2022-10-28T04:03:25.672Z,69.46
2022-10-28T04:05:53.083Z,70.03
2022-10-28T04:08:21.242Z,70.09
2022-10-28T04:10:48.638Z,69.97
2022-10-28T04:13:16.680Z,70.20
2022-10-28T04:15:44.224Z,70.64
2022-10-28T04:18:11.499Z,70.43
2022-10-28T04:20:38.577Z,70.57
2022-10-28T04:23:05.746Z,70.59
2022-10-28T04:25:33.211Z,70.22
2022-10-28T04:28:02.565Z,70.65
2022-10-28T04:30:29.612Z,70.71
2022-10-28T04:32:56.612Z,70.64
2022-10-28T04:35:24.060Z,70.62
2022-10-28T04:37:51.161Z,70.82
2022-10-28T04:40:18.557Z,70.88
2022-10-28T04:42:45.683Z,70.58
2022-10-28T04:45:12.733Z,70.80
2022-10-28T04:47:39.817Z,70.77
2022-10-28T04:50:07.205Z,71.07
2022-10-28T04:52:34.361Z,70.50
2022-10-28T04:55:01.492Z,70.85
2022-10-28T04:57:30.563Z,70.50
2022-10-28T04:59:57.507Z,70.74
2022-10-28T05:02:24.754Z,70.49
2022-10-28T05:04:52.144Z,70.83
2022-10-28T05:07:21.302Z,70.54
2022-10-28T05:09:50.582Z,70.83
2022-10-28T05:12:17.685Z,70.42
2022-10-28T05:14:44.860Z,70.65
2022-10-28T05:17:12.178Z,70.16
2022-10-28T05:19:39.180Z,70.36
2022-10-28T05:22:06.218Z,70.70
2022-10-28T05:24:33.152Z,70.12
2022-10-28T05:27:01.042Z,70.17
2022-10-28T05:29:33.018Z,70.24
2022-10-28T05:32:01.066Z,70.20
2022-10-28T05:34:28.155Z,70.71
2022-10-28T05:36:55.173Z,70.78
2022-10-28T05:39:22.309Z,70.74
2022-10-28T05:41:49.364Z,70.81
2022-10-28T05:44:16.280Z,70.43
2022-10-28T05:46:43.477Z,70.40
2022-10-28T05:49:10.810Z,70.72
2022-10-28T05:51:37.918Z,70.77
2022-10-28T05:54:05.072Z,70.14
2022-10-28T05:56:32.004Z,70.87
2022-10-28T05:58:58.939Z,70.58
2022-10-28T06:01:25.908Z,70.92
2022-10-28T06:03:52.982Z,70.96
2022-10-28T06:06:20.070Z,71.11
2022-10-28T06:08:46.958Z,71.21
2022-10-28T06:11:12.776Z,71.44
2022-10-28T06:13:39.689Z,71.61
2022-10-28T06:16:07.447Z,70.89
2022-10-28T06:18:34.625Z,71.40
2022-10-28T06:21:01.879Z,71.10
2022-10-28T06:23:29.035Z,70.76
2022-10-28T06:26:00.918Z,71.11
2022-10-28T06:28:28.346Z,71.41
2022-10-28T06:31:03.134Z,71.01
2022-10-28T06:33:31.724Z,71.09
2022-10-28T06:35:59.818Z,70.92
2022-10-28T06:38:27.774Z,71.07
2022-10-28T06:40:58.354Z,71.05
2022-10-28T06:43:25.478Z,71.24
2022-10-28T06:45:55.706Z,70.98
2022-10-28T06:48:24.545Z,71.37
2022-10-28T06:50:51.656Z,71.16
2022-10-28T06:53:18.674Z,71.40
2022-10-28T06:55:53.058Z,71.20
2022-10-28T06:58:20.420Z,71.41
2022-10-28T07:00:47.928Z,71.50
2022-10-28T07:03:15.456Z,71.80
2022-10-28T07:05:42.484Z,71.45
2022-10-28T07:08:09.588Z,71.29
2022-10-28T07:10:36.702Z,71.48
2022-10-28T07:13:04.382Z,71.33
2022-10-28T07:15:31.658Z,71.08
2022-10-28T07:17:59.576Z,71.25
2022-10-28T07:20:28.148Z,71.22
2022-10-28T07:23:02.543Z,71.20
2022-10-28T07:25:31.159Z,71.13
2022-10-28T07:27:59.439Z,70.90
2022-10-28T07:30:27.837Z,71.04
2022-10-28T07:32:55.019Z,71.16
2022-10-28T07:35:22.295Z,70.83
2022-10-28T07:37:49.250Z,71.52
2022-10-28T07:40:16.560Z,71.04
2022-10-28T07:42:43.580Z,71.24
2022-10-28T07:45:10.713Z,71.25
2022-10-28T07:47:37.833Z,71.02
2022-10-28T07:50:06.427Z,70.96
2022-10-28T07:52:34.833Z,70.57
2022-10-28T07:55:02.868Z,70.67
2022-10-28T07:57:30.575Z,70.52
2022-10-28T07:59:57.771Z,70.41
2022-10-28T08:02:25.977Z,70.30
2022-10-28T08:04:53.356Z,70.02
2022-10-28T08:07:20.780Z,69.88
2022-10-28T08:09:47.833Z,70.00
2022-10-28T08:12:15.888Z,69.78
2022-10-28T08:14:43.027Z,70.03
2022-10-28T08:17:10.156Z,69.44
2022-10-28T08:19:37.468Z,69.25
2022-10-28T08:22:04.722Z,69.17
2022-10-28T08:24:31.861Z,69.56
2022-10-28T08:26:58.916Z,69.37
2022-10-28T08:29:29.078Z,68.40
2022-10-28T08:31:57.993Z,68.84
2022-10-28T08:34:29.901Z,69.09
2022-10-28T08:36:57.875Z,68.18
2022-10-28T08:39:25.176Z,68.28
2022-10-28T08:42:24.100Z,68.35
2022-10-28T08:45:16.254Z,68.36
2022-10-28T08:48:14.626Z,68.76
2022-10-28T08:50:53.608Z,67.89
2022-10-28T08:53:35.549Z,67.44
2022-10-28T08:56:14.731Z,67.36
2022-10-28T08:58:45.073Z,67.19
2022-10-28T09:01:21.418Z,67.65
2022-10-28T09:03:51.493Z,66.81
2022-10-28T09:06:18.433Z,65.61
2022-10-28T09:08:49.310Z,65.35
2022-10-28T09:11:26.283Z,63.41
2022-10-28T09:14:09.431Z,62.24
2022-10-28T09:16:47.179Z,61.40
2022-10-28T09:19:14.099Z,60.08
2022-10-28T09:22:22.780Z,59.69
2022-10-28T09:24:54.083Z,61.99
2022-10-28T09:27:42.082Z,61.25
2022-10-28T09:30:46.409Z,60.50
2022-10-28T09:33:40.962Z,60.01
2022-10-28T09:36:16.943Z,58.70
2022-10-28T09:38:45.084Z,58.31
2022-10-28T09:41:20.910Z,58.32
2022-10-28T09:44:04.427Z,57.06
2022-10-28T09:46:36.209Z,55.65
2022-10-28T09:49:10.802Z,54.41
2022-10-28T09:51:52.893Z,55.27
2022-10-28T09:54:28.558Z,55.29
2022-10-28T09:56:55.560Z,55.44
2022-10-28T09:59:22.575Z,55.65
2022-10-28T10:01:49.736Z,55.59
2022-10-28T10:04:21.122Z,55.77
2022-10-28T10:06:56.678Z,56.09
2022-10-28T10:09:27.476Z,56.52
2022-10-28T10:11:59.814Z,55.89
2022-10-28T10:14:36.933Z,55.32
2022-10-28T10:17:10.531Z,56.08
2022-10-28T10:20:00.788Z,55.83
2022-10-28T10:22:37.320Z,55.88
2022-10-28T10:25:23.288Z,56.24
2022-10-28T10:27:51.951Z,56.47
2022-10-28T10:30:23.589Z,56.58
2022-10-28T10:32:52.131Z,56.59
2022-10-28T10:35:29.683Z,56.15
2022-10-28T10:37:59.769Z,56.68
2022-10-28T10:40:37.188Z,56.95
2022-10-28T10:43:27.402Z,57.57
2022-10-28T10:46:12.319Z,57.61
2022-10-28T10:48:39.357Z,57.18
2022-10-28T10:51:18.254Z,57.87
2022-10-28T10:53:49.575Z,57.69
2022-10-28T10:56:26.586Z,57.92
2022-10-28T10:58:56.404Z,57.94
2022-10-28T11:01:27.745Z,58.72
2022-10-28T11:04:08.787Z,58.74
2022-10-28T11:06:42.500Z,59.30
2022-10-28T11:09:27.866Z,59.50
2022-10-28T11:11:56.042Z,60.01
2022-10-28T11:14:26.481Z,60.21
2022-10-28T11:16:55.977Z,60.42
2022-10-28T11:19:35.027Z,60.35
2022-10-28T11:22:13.312Z,61.03
2022-10-28T11:25:17.042Z,61.02
2022-10-28T11:28:21.517Z,61.16
2022-10-28T11:31:18.998Z,61.99
2022-10-28T11:33:49.028Z,61.88
2022-10-28T11:36:22.293Z,61.73
2022-10-28T11:39:25.115Z,62.02
2022-10-28T11:41:51.983Z,62.05
2022-10-28T11:44:21.745Z,62.61
2022-10-28T11:47:19.842Z,62.16
2022-10-28T11:49:59.176Z,61.34
2022-10-28T11:52:34.727Z,62.35
2022-10-28T11:55:26.503Z,62.30
2022-10-28T11:58:25.669Z,62.72
2022-10-28T12:01:32.107Z,63.27
2022-10-28T12:04:05.164Z,63.05
2022-10-28T12:06:41.191Z,62.90
2022-10-28T12:09:35.658Z,63.05
2022-10-28T12:12:09.961Z,63.13
2022-10-28T12:14:58.798Z,63.16
2022-10-28T12:17:47.532Z,63.38
2022-10-28T12:20:27.317Z,63.17
2022-10-28T12:23:03.397Z,63.12
2022-10-28T12:25:38.018Z,63.57
2022-10-28T12:28:22.162Z,63.98
2022-10-28T12:30:54.782Z,63.46
2022-10-28T12:33:33.515Z,63.83
2022-10-28T12:36:10.224Z,64.12
2022-10-28T12:38:50.784Z,63.68
2022-10-28T12:41:33.035Z,64.03
2022-10-28T12:44:13.351Z,63.70
2022-10-28T12:47:17.730Z,63.89
2022-10-28T12:50:09.168Z,63.92
2022-10-28T12:52:42.400Z,64.00
2022-10-28T12:55:38.072Z,63.54
2022-10-28T12:58:15.857Z,63.94
2022-10-28T13:00:47.862Z,63.84
2022-10-28T13:03:16.276Z,63.95
2022-10-28T13:05:51.442Z,63.76
2022-10-28T13:08:39.345Z,64.16
2022-10-28T13:11:40.386Z,64.39
2022-10-28T13:14:35.175Z,64.47
2022-10-28T13:17:43.858Z,64.23
2022-10-28T13:20:39.271Z,64.90
2022-10-28T13:23:13.108Z,65.22
2022-10-28T13:25:40.321Z,65.00
2022-10-28T13:28:14.653Z,64.52
2022-10-28T13:30:54.296Z,65.07
2022-10-28T13:33:26.872Z,65.11
2022-10-28T13:36:07.481Z,65.04
2022-10-28T13:38:35.385Z,65.77
2022-10-28T13:41:02.320Z,65.94
2022-10-28T13:43:50.998Z,66.84
2022-10-28T13:46:55.618Z,66.58
2022-10-28T13:49:24.707Z,66.27
2022-10-28T13:52:00.060Z,66.32
2022-10-28T13:54:51.364Z,66.25
2022-10-28T13:57:36.961Z,65.98
2022-10-28T14:00:15.932Z,66.18
2022-10-28T14:03:17.338Z,66.48
2022-10-28T14:05:44.392Z,66.44
2022-10-28T14:08:32.656Z,66.08
2022-10-28T14:11:04.730Z,66.12
2022-10-28T14:13:37.374Z,66.30
2022-10-28T14:16:36.920Z,66.57
2022-10-28T14:19:15.201Z,66.30
2022-10-28T14:21:51.340Z,66.19
2022-10-28T14:24:35.702Z,67.04
2022-10-28T14:27:05.706Z,66.93
2022-10-28T14:30:02.415Z,66.27
2022-10-28T14:32:33.789Z,66.57
2022-10-28T14:35:05.990Z,66.59
2022-10-28T14:37:36.045Z,66.79
2022-10-28T14:40:31.098Z,66.74
2022-10-28T14:43:29.374Z,66.83
2022-10-28T14:46:31.176Z,67.24
2022-10-28T14:49:00.899Z,67.10
2022-10-28T14:51:37.205Z,67.36
2022-10-28T14:54:12.398Z,67.41
2022-10-28T14:56:41.146Z,68.10
2022-10-28T14:59:27.881Z,68.20
2022-10-28T15:02:21.998Z,68.50
2022-10-28T15:05:01.711Z,68.46
2022-10-28T15:07:35.520Z,69.03
2022-10-28T15:10:28.684Z,69.42
2022-10-28T15:13:00.720Z,69.61
2022-10-28T15:15:34.616Z,69.49
2022-10-28T15:18:02.425Z,69.75
2022-10-28T15:20:32.510Z,69.79
2022-10-28T15:26:14.924Z,69.87
2022-10-28T15:28:43.127Z,70.18
2022-10-28T15:31:10.606Z,70.03
2022-10-28T15:33:39.811Z,70.30
2022-10-28T15:36:25.466Z,70.03
2022-10-28T15:39:16.555Z,70.88
2022-10-28T15:41:49.616Z,70.55
2022-10-28T15:44:37.144Z,70.93
2022-10-28T15:47:29.495Z,70.73
2022-10-28T15:50:14.770Z,71.41
2022-10-28T15:52:57.360Z,71.15
2022-10-28T15:55:35.848Z,71.07
2022-10-28T15:58:19.307Z,71.08
2022-10-28T16:00:58.319Z,70.86
2022-10-28T16:03:47.632Z,71.62
2022-10-28T16:06:34.776Z,72.38
2022-10-28T16:09:16.658Z,72.12
2022-10-28T16:11:49.759Z,72.48
2022-10-28T16:14:45.766Z,72.72
2022-10-28T16:17:23.949Z,73.54
2022-10-28T16:19:56.009Z,72.76
2022-10-28T16:22:26.162Z,73.32
2022-10-28T16:24:54.381Z,73.23
2022-10-28T16:27:22.896Z,73.20
2022-10-28T16:29:50.670Z,73.94
2022-10-28T16:32:22.630Z,73.23
2022-10-28T16:34:49.712Z,74.12
2022-10-28T16:37:26.048Z,73.72
2022-10-28T16:39:53.309Z,73.76
2022-10-28T16:42:21.296Z,74.03
2022-10-28T16:44:48.427Z,73.77
2022-10-28T16:47:18.252Z,73.77
2022-10-28T16:49:45.894Z,74.05
2022-10-28T16:52:21.017Z,73.87
2022-10-28T16:54:48.946Z,73.63
2022-10-28T16:57:17.106Z,74.03
2022-10-28T16:59:44.091Z,73.92
2022-10-28T17:02:30.856Z,74.09
2022-10-28T17:04:59.413Z,74.18
2022-10-28T17:07:28.029Z,74.22
2022-10-28T17:09:55.150Z,74.64
2022-10-28T17:12:24.812Z,74.37
2022-10-28T17:14:52.420Z,74.42
2022-10-28T17:17:19.714Z,74.23
2022-10-28T17:19:47.629Z,74.65
2022-10-28T17:22:14.841Z,74.60
2022-10-28T17:24:42.022Z,74.87
2022-10-28T17:27:09.064Z,74.54
2022-10-28T17:29:36.279Z,74.76
2022-10-28T17:32:03.504Z,75.09
2022-10-28T17:34:30.550Z,74.88
2022-10-28T17:36:57.587Z,74.89
2022-10-28T17:39:26.387Z,75.15
2022-10-28T17:41:54.014Z,75.07
2022-10-28T17:44:20.964Z,75.12
2022-10-28T17:46:52.060Z,74.70
2022-10-28T17:49:19.403Z,75.16
2022-10-28T17:51:46.386Z,75.33
2022-10-28T17:54:13.564Z,75.40
2022-10-28T17:56:42.294Z,75.51
2022-10-28T17:59:09.651Z,75.28
2022-10-28T18:01:37.235Z,75.57
2022-10-28T18:04:06.265Z,75.61
2022-10-28T18:06:33.493Z,75.52
2022-10-28T18:09:00.589Z,75.94
2022-10-28T18:11:27.729Z,76.14
2022-10-28T18:13:56.439Z,75.46
2022-10-28T18:16:30.710Z,76.29
2022-10-28T18:19:07.309Z,75.77
2022-10-28T18:21:35.187Z,75.69
2022-10-28T18:24:05.330Z,76.17
2022-10-28T18:26:34.795Z,75.55
2022-10-28T18:29:05.331Z,75.67
2022-10-28T18:31:33.827Z,75.43
2022-10-28T18:34:02.698Z,75.95
2022-10-28T18:36:34.537Z,75.83
2022-10-28T18:39:04.295Z,75.66
2022-10-28T18:41:32.661Z,75.92
2022-10-28T18:44:01.917Z,75.66
2022-10-28T18:46:31.617Z,75.61
2022-10-28T18:51:25.921Z,76.00
2022-10-28T18:53:53.091Z,75.58
2022-10-28T18:56:22.785Z,75.19
2022-10-28T18:58:51.657Z,75.43
2022-10-28T19:01:24.346Z,75.72
2022-10-28T19:03:57.060Z,75.63
2022-10-28T19:06:26.179Z,76.02
2022-10-28T19:08:55.453Z,75.72
2022-10-28T19:11:25.913Z,75.96
2022-10-28T19:13:53.033Z,76.08
2022-10-28T19:16:20.080Z,75.82
2022-10-28T19:18:47.193Z,76.06
2022-10-28T19:21:16.572Z,76.08
2022-10-28T19:23:45.170Z,75.60
2022-10-28T19:26:13.854Z,75.85
2022-10-28T19:28:43.792Z,76.01
2022-10-28T19:31:19.530Z,76.04
2022-10-28T19:33:46.887Z,76.09
2022-10-28T19:36:18.853Z,76.10
2022-10-28T19:38:48.092Z,76.13
2022-10-28T19:41:19.777Z,75.95
2022-10-28T19:43:49.160Z,76.17
2022-10-28T19:46:22.393Z,76.19
2022-10-28T19:48:51.364Z,75.83
2022-10-28T19:51:21.269Z,76.08
2022-10-28T19:53:49.918Z,76.60
2022-10-28T19:56:19.515Z,76.52
2022-10-28T19:59:07.678Z,76.35
2022-10-28T20:01:38.528Z,76.61
2022-10-28T20:04:06.713Z,76.32
2022-10-28T20:06:36.274Z,76.95
2022-10-28T20:09:03.999Z,76.92
2022-10-28T20:11:33.264Z,76.55
2022-10-28T20:14:12.105Z,76.57
2022-10-28T20:16:42.857Z,76.78
2022-10-28T20:19:10.738Z,76.84
2022-10-28T20:21:39.420Z,76.92
2022-10-28T20:24:07.780Z,76.79
2022-10-28T20:26:37.096Z,77.13
2022-10-28T20:29:06.944Z,77.20
2022-10-28T20:31:34.337Z,77.33
2022-10-28T20:34:04.011Z,77.28
2022-10-28T20:36:33.463Z,77.30
2022-10-28T20:39:06.971Z,77.63
2022-10-28T20:41:35.407Z,77.17
2022-10-28T20:44:05.355Z,77.28
2022-10-28T20:46:32.808Z,76.87
2022-10-28T20:49:01.040Z,77.06
2022-10-28T20:51:30.538Z,76.95
2022-10-28T20:53:58.193Z,77.45
2022-10-28T20:56:27.348Z,76.88
2022-10-28T20:58:56.018Z,77.19
2022-10-28T21:01:37.451Z,76.91
2022-10-28T21:04:08.955Z,76.76
2022-10-28T21:06:39.479Z,77.28
2022-10-28T21:09:07.977Z,77.59
2022-10-28T21:11:34.983Z,77.03
2022-10-28T21:14:02.385Z,77.31
2022-10-28T21:16:30.268Z,77.14
2022-10-28T21:18:59.242Z,77.09
2022-10-28T21:21:27.484Z,77.10
2022-10-28T21:23:54.547Z,77.20
2022-10-28T21:26:21.767Z,76.88
2022-10-28T21:28:50.293Z,77.03
2022-10-28T21:31:18.314Z,77.21
2022-10-28T21:33:46.118Z,76.95
2022-10-28T21:36:15.852Z,77.26
2022-10-28T21:38:43.350Z,76.97
2022-10-28T21:41:14.450Z,77.46
2022-10-28T21:43:44.102Z,77.01
2022-10-28T21:46:12.629Z,76.96
2022-10-28T21:48:40.590Z,77.14
2022-10-28T21:51:14.523Z,77.07
2022-10-28T21:53:43.979Z,77.35
2022-10-28T21:56:18.533Z,77.48
2022-10-28T21:58:48.821Z,77.20
2022-10-28T22:01:21.185Z,77.49
2022-10-28T22:03:49.362Z,77.20
2022-10-28T22:06:16.340Z,77.31
2022-10-28T22:08:43.575Z,77.16
2022-10-28T22:11:18.033Z,77.37
2022-10-28T22:13:45.815Z,77.21
2022-10-28T22:16:18.048Z,77.39
2022-10-28T22:18:45.565Z,77.18
2022-10-28T22:21:17.168Z,77.02
2022-10-28T22:23:44.734Z,77.05
2022-10-28T22:26:14.140Z,77.13
2022-10-28T22:28:41.342Z,77.14
2022-10-28T22:31:15.311Z,77.15
2022-10-28T22:33:42.426Z,77.45
2022-10-28T22:36:17.145Z,76.94
2022-10-28T22:38:44.717Z,77.18
2022-10-28T22:41:29.351Z,77.62
2022-10-28T22:43:59.175Z,77.11
2022-10-28T22:46:28.844Z,77.34
2022-10-28T22:48:56.419Z,77.28
2022-10-28T22:51:26.264Z,77.40
2022-10-28T22:53:53.327Z,76.93
2022-10-28T22:56:22.266Z,77.10
2022-10-28T22:58:53.676Z,77.43
2022-10-28T23:01:21.926Z,76.98
2022-10-28T23:03:50.628Z,77.00
2022-10-28T23:06:20.226Z,77.26
2022-10-28T23:08:47.690Z,77.21
2022-10-28T23:11:16.395Z,77.55
2022-10-28T23:13:43.827Z,77.11
2022-10-28T23:16:13.502Z,77.21
2022-10-28T23:18:41.234Z,77.24
2022-10-28T23:21:12.483Z,77.10
2022-10-28T23:23:40.435Z,77.27
2022-10-28T23:26:10.577Z,77.39
2022-10-28T23:28:37.546Z,77.35
2022-10-28T23:31:06.240Z,77.27
2022-10-28T23:33:34.837Z,77.23
2022-10-28T23:36:03.921Z,77.41
2022-10-28T23:38:31.436Z,77.26
2022-10-28T23:41:00.657Z,77.57
2022-10-28T23:43:28.882Z,77.26
2022-10-28T23:45:56.835Z,77.26
2022-10-28T23:48:25.154Z,77.29
2022-10-28T23:50:52.691Z,77.45
2022-10-28T23:53:20.319Z,77.51
2022-10-28T23:55:49.262Z,77.27
2022-10-28T23:58:18.044Z,77.74
